Bluff Spring, Alabama
Current Conditions -  °F | °C
As of 1:35 PM on Friday 31 Oct 2014 (Local Time) from KALX Reporting Station
Broken Clouds Broken Clouds  
Wind Chill: 66°   Ceiling: 5000
Heat Index: 66°   Visibility: 10mi
Dew Point: 33°   Wind: 8mph
Humidity: 29%   Direction: 340°NNW
Pressure: 29.93"   Gusts: NA
Location:  33.2143°N, 85.8209°W
Report Text: KALX 311835Z AUTO 34007KT 10SM BKN050 BKN060 BKN085 19/00 A2993 RMK AO2 T01900004
Loading
Personal Weather Stations






























Interactive Weather Map
Tropical Storm Tracking
New forecast layout! Learn more

10-Day Weather Forecast

Advertisements
Track Severe Weather on mobile